sensor_id;sensor_type;location;lat;lon;timestamp;pressure;altitude;pressure_sealevel;temperature;humidity
46015;BME280;36844;51.898;-0.874;2023-03-03T00:01:05;101626.97;;;17.89;
46015;BME280;36844;51.898;-0.874;2023-03-03T00:03:31;101625.44;;;17.88;
46015;BME280;36844;51.898;-0.874;2023-03-03T00:05:56;101627.72;;;17.86;
46015;BME280;36844;51.898;-0.874;2023-03-03T00:08:21;101619.22;;;17.84;
46015;BME280;36844;51.898;-0.874;2023-03-03T00:10:47;101630.38;;;17.82;
46015;BME280;36844;51.898;-0.874;2023-03-03T00:13:20;101629.97;;;17.80;
46015;BME280;36844;51.898;-0.874;2023-03-03T00:15:46;101642.63;;;17.80;
46015;BME280;36844;51.898;-0.874;2023-03-03T00:18:32;101643.38;;;17.77;
46015;BME280;36844;51.898;-0.874;2023-03-03T00:20:59;101635.25;;;17.73;
46015;BME280;36844;51.898;-0.874;2023-03-03T00:23:27;101634.81;;;17.71;
46015;BME280;36844;51.898;-0.874;2023-03-03T00:25:54;101635.97;;;17.70;
46015;BME280;36844;51.898;-0.874;2023-03-03T00:28:23;101639.03;;;17.68;
46015;BME280;36844;51.898;-0.874;2023-03-03T00:30:50;101636.66;;;17.67;
46015;BME280;36844;51.898;-0.874;2023-03-03T00:35:44;101635.06;;;17.62;
46015;BME280;36844;51.898;-0.874;2023-03-03T00:38:10;101636.22;;;17.61;
46015;BME280;36844;51.898;-0.874;2023-03-03T00:40:37;101637.34;;;17.60;
46015;BME280;36844;51.898;-0.874;2023-03-03T00:43:19;101643.13;;;17.59;
46015;BME280;36844;51.898;-0.874;2023-03-03T00:45:49;101639.22;;;17.56;
46015;BME280;36844;51.898;-0.874;2023-03-03T00:48:22;101639.59;;;17.55;
46015;BME280;36844;51.898;-0.874;2023-03-03T00:50:47;101642.66;;;17.53;
46015;BME280;36844;51.898;-0.874;2023-03-03T00:53:13;101646.47;;;17.52;
46015;BME280;36844;51.898;-0.874;2023-03-03T00:55:41;101647.59;;;17.51;
46015;BME280;36844;51.898;-0.874;2023-03-03T00:58:06;101642.94;;;17.48;
46015;BME280;36844;51.898;-0.874;2023-03-03T01:00:32;101648.31;;;17.48;
46015;BME280;36844;51.898;-0.874;2023-03-03T01:02:59;101648.72;;;17.47;
46015;BME280;36844;51.898;-0.874;2023-03-03T01:05:25;101644.78;;;17.44;
46015;BME280;36844;51.898;-0.874;2023-03-03T01:07:51;101644.41;;;17.42;
46015;BME280;36844;51.898;-0.874;2023-03-03T01:10:16;101648.22;;;17.41;
46015;BME280;36844;51.898;-0.874;2023-03-03T01:12:41;101641.25;;;17.40;
46015;BME280;36844;51.898;-0.874;2023-03-03T01:15:07;101644.34;;;17.39;
46015;BME280;36844;51.898;-0.874;2023-03-03T01:17:33;101644.69;;;17.37;
46015;BME280;36844;51.898;-0.874;2023-03-03T01:19:59;101645.09;;;17.36;
46015;BME280;36844;51.898;-0.874;2023-03-03T01:22:24;101646.53;;;17.33;
46015;BME280;36844;51.898;-0.874;2023-03-03T01:24:50;101648.44;;;17.33;
46015;BME280;36844;51.898;-0.874;2023-03-03T01:27:15;101650.38;;;17.32;
46015;BME280;36844;51.898;-0.874;2023-03-03T01:29:40;101647.28;;;17.30;
46015;BME280;36844;51.898;-0.874;2023-03-03T01:32:05;101642.22;;;17.29;
46015;BME280;36844;51.898;-0.874;2023-03-03T01:34:30;101644.19;;;17.28;
46015;BME280;36844;51.898;-0.874;2023-03-03T01:36:56;101650.69;;;17.27;
46015;BME280;36844;51.898;-0.874;2023-03-03T01:39:21;101649.50;;;17.25;
46015;BME280;36844;51.898;-0.874;2023-03-03T01:41:46;101652.53;;;17.23;
46015;BME280;36844;51.898;-0.874;2023-03-03T01:44:15;101650.97;;;17.22;
46015;BME280;36844;51.898;-0.874;2023-03-03T01:46:43;101662.13;;;17.21;
46015;BME280;36844;51.898;-0.874;2023-03-03T01:49:21;101650.59;;;17.20;
46015;BME280;36844;51.898;-0.874;2023-03-03T01:51:48;101658.22;;;17.18;
46015;BME280;36844;51.898;-0.874;2023-03-03T01:54:19;101655.13;;;17.16;
46015;BME280;36844;51.898;-0.874;2023-03-03T01:56:46;101654.34;;;17.16;
46015;BME280;36844;51.898;-0.874;2023-03-03T01:59:19;101662.75;;;17.14;
46015;BME280;36844;51.898;-0.874;2023-03-03T02:01:46;101655.06;;;17.13;
46015;BME280;36844;51.898;-0.874;2023-03-03T02:04:11;101666.97;;;17.12;
46015;BME280;36844;51.898;-0.874;2023-03-03T02:06:37;101665.38;;;17.11;
46015;BME280;36844;51.898;-0.874;2023-03-03T02:11:35;101669.59;;;17.08;
46015;BME280;36844;51.898;-0.874;2023-03-03T02:14:01;101672.28;;;17.08;
46015;BME280;36844;51.898;-0.874;2023-03-03T02:16:27;101667.25;;;17.07;
46015;BME280;36844;51.898;-0.874;2023-03-03T02:18:52;101664.94;;;17.05;
46015;BME280;36844;51.898;-0.874;2023-03-03T02:21:21;101663.38;;;17.04;
46015;BME280;36844;51.898;-0.874;2023-03-03T02:23:59;101665.28;;;17.04;
46015;BME280;36844;51.898;-0.874;2023-03-03T02:26:28;101669.47;;;17.01;
46015;BME280;36844;51.898;-0.874;2023-03-03T02:28:53;101675.97;;;17.00;
46015;BME280;36844;51.898;-0.874;2023-03-03T02:31:20;101678.69;;;17.00;
46015;BME280;36844;51.898;-0.874;2023-03-03T02:33:47;101671.72;;;16.99;
46015;BME280;36844;51.898;-0.874;2023-03-03T02:36:14;101674.00;;;16.97;
46015;BME280;36844;51.898;-0.874;2023-03-03T02:38:45;101662.47;;;16.97;
46015;BME280;36844;51.898;-0.874;2023-03-03T02:43:52;101663.94;;;16.94;
46015;BME280;36844;51.898;-0.874;2023-03-03T02:46:21;101667.00;;;16.93;
46015;BME280;36844;51.898;-0.874;2023-03-03T02:48:46;101664.31;;;16.93;
46015;BME280;36844;51.898;-0.874;2023-03-03T02:51:11;101670.06;;;16.91;
46015;BME280;36844;51.898;-0.874;2023-03-03T02:53:36;101670.06;;;16.91;
46015;BME280;36844;51.898;-0.874;2023-03-03T02:56:01;101673.09;;;16.90;
46015;BME280;36844;51.898;-0.874;2023-03-03T02:58:28;101676.13;;;16.88;
46015;BME280;36844;51.898;-0.874;2023-03-03T03:00:54;101679.97;;;16.87;
46015;BME280;36844;51.898;-0.874;2023-03-03T03:03:19;101673.03;;;16.86;
46015;BME280;36844;51.898;-0.874;2023-03-03T03:05:44;101670.31;;;16.86;
46015;BME280;36844;51.898;-0.874;2023-03-03T03:08:10;101673.38;;;16.85;
46015;BME280;36844;51.898;-0.874;2023-03-03T03:10:35;101681.81;;;16.83;
46015;BME280;36844;51.898;-0.874;2023-03-03T03:13:01;101675.66;;;16.83;
46015;BME280;36844;51.898;-0.874;2023-03-03T03:15:26;101676.00;;;16.81;
46015;BME280;36844;51.898;-0.874;2023-03-03T03:17:51;101669.50;;;16.82;
46015;BME280;36844;51.898;-0.874;2023-03-03T03:20:16;101666.72;;;16.78;
46015;BME280;36844;51.898;-0.874;2023-03-03T03:22:42;101670.56;;;16.77;
46015;BME280;36844;51.898;-0.874;2023-03-03T03:25:07;101669.78;;;16.77;
46015;BME280;36844;51.898;-0.874;2023-03-03T03:27:32;101668.19;;;16.76;
46015;BME280;36844;51.898;-0.874;2023-03-03T03:29:58;101665.50;;;16.76;
46015;BME280;36844;51.898;-0.874;2023-03-03T03:32:23;101661.28;;;16.75;
46015;BME280;36844;51.898;-0.874;2023-03-03T03:34:48;101661.63;;;16.73;
46015;BME280;36844;51.898;-0.874;2023-03-03T03:37:13;101664.34;;;16.73;
46015;BME280;36844;51.898;-0.874;2023-03-03T03:39:39;101657.75;;;16.71;
46015;BME280;36844;51.898;-0.874;2023-03-03T03:42:04;101663.13;;;16.71;
46015;BME280;36844;51.898;-0.874;2023-03-03T03:44:30;101668.50;;;16.71;
46015;BME280;36844;51.898;-0.874;2023-03-03T03:46:55;101668.06;;;16.69;
46015;BME280;36844;51.898;-0.874;2023-03-03T03:49:20;101661.91;;;16.68;
46015;BME280;36844;51.898;-0.874;2023-03-03T03:51:45;101670.34;;;16.67;
46015;BME280;36844;51.898;-0.874;2023-03-03T03:54:11;101676.50;;;16.67;
46015;BME280;36844;51.898;-0.874;2023-03-03T03:56:36;101666.09;;;16.66;
46015;BME280;36844;51.898;-0.874;2023-03-03T03:59:02;101670.69;;;16.65;
46015;BME280;36844;51.898;-0.874;2023-03-03T04:01:27;101672.59;;;16.65;
46015;BME280;36844;51.898;-0.874;2023-03-03T04:03:52;101663.00;;;16.64;
46015;BME280;36844;51.898;-0.874;2023-03-03T04:06:17;101669.53;;;16.63;
46015;BME280;36844;51.898;-0.874;2023-03-03T04:08:43;101667.94;;;16.62;
46015;BME280;36844;51.898;-0.874;2023-03-03T04:11:08;101666.38;;;16.61;
46015;BME280;36844;51.898;-0.874;2023-03-03T04:13:33;101663.69;;;16.61;
46015;BME280;36844;51.898;-0.874;2023-03-03T04:15:59;101663.28;;;16.59;
46015;BME280;36844;51.898;-0.874;2023-03-03T04:18:25;101664.03;;;16.59;
46015;BME280;36844;51.898;-0.874;2023-03-03T04:20:50;101665.97;;;16.59;
46015;BME280;36844;51.898;-0.874;2023-03-03T04:23:16;101666.31;;;16.57;
46015;BME280;36844;51.898;-0.874;2023-03-03T04:25:42;101668.22;;;16.57;
46015;BME280;36844;51.898;-0.874;2023-03-03T04:28:09;101669.38;;;16.56;
46015;BME280;36844;51.898;-0.874;2023-03-03T04:30:34;101667.81;;;16.55;
46015;BME280;36844;51.898;-0.874;2023-03-03T04:33:00;101670.16;;;16.56;
46015;BME280;36844;51.898;-0.874;2023-03-03T04:35:25;101669.72;;;16.54;
46015;BME280;36844;51.898;-0.874;2023-03-03T04:37:50;101666.25;;;16.54;
46015;BME280;36844;51.898;-0.874;2023-03-03T04:40:16;101667.38;;;16.53;
46015;BME280;36844;51.898;-0.874;2023-03-03T04:42:42;101671.97;;;16.52;
46015;BME280;36844;51.898;-0.874;2023-03-03T04:45:07;101671.19;;;16.52;
46015;BME280;36844;51.898;-0.874;2023-03-03T04:47:33;101673.13;;;16.51;
46015;BME280;36844;51.898;-0.874;2023-03-03T04:49:58;101676.16;;;16.50;
46015;BME280;36844;51.898;-0.874;2023-03-03T04:52:24;101670.78;;;16.50;
46015;BME280;36844;51.898;-0.874;2023-03-03T04:54:50;101670.34;;;16.48;
46015;BME280;36844;51.898;-0.874;2023-03-03T04:57:15;101666.13;;;16.47;
46015;BME280;36844;51.898;-0.874;2023-03-03T04:59:40;101670.69;;;16.46;
46015;BME280;36844;51.898;-0.874;2023-03-03T05:02:05;101673.75;;;16.45;
46015;BME280;36844;51.898;-0.874;2023-03-03T05:04:32;101674.88;;;16.44;
46015;BME280;36844;51.898;-0.874;2023-03-03T05:06:57;101675.66;;;16.44;
46015;BME280;36844;51.898;-0.874;2023-03-03T05:09:22;101676.00;;;16.43;
46015;BME280;36844;51.898;-0.874;2023-03-03T05:11:47;101679.81;;;16.42;
46015;BME280;36844;51.898;-0.874;2023-03-03T05:14:13;101690.56;;;16.42;
46015;BME280;36844;51.898;-0.874;2023-03-03T05:16:38;101687.88;;;16.42;
46015;BME280;36844;51.898;-0.874;2023-03-03T05:19:03;101686.34;;;16.41;
46015;BME280;36844;51.898;-0.874;2023-03-03T05:21:28;101683.22;;;16.39;
46015;BME280;36844;51.898;-0.874;2023-03-03T05:23:54;101677.84;;;16.39;
46015;BME280;36844;51.898;-0.874;2023-03-03T05:26:19;101680.53;;;16.39;
46015;BME280;36844;51.898;-0.874;2023-03-03T05:28:44;101678.19;;;16.37;
46015;BME280;36844;51.898;-0.874;2023-03-03T05:31:09;101679.31;;;16.36;
46015;BME280;36844;51.898;-0.874;2023-03-03T05:33:34;101676.63;;;16.36;
46015;BME280;36844;51.898;-0.874;2023-03-03T05:36:00;101677.78;;;16.35;
46015;BME280;36844;51.898;-0.874;2023-03-03T05:38:25;101677.78;;;16.35;
46015;BME280;36844;51.898;-0.874;2023-03-03T05:40:50;101675.41;;;16.34;
46015;BME280;36844;51.898;-0.874;2023-03-03T05:43:15;101676.56;;;16.33;
46015;BME280;36844;51.898;-0.874;2023-03-03T05:45:41;101679.25;;;16.33;
46015;BME280;36844;51.898;-0.874;2023-03-03T05:48:06;101677.72;;;16.32;
46015;BME280;36844;51.898;-0.874;2023-03-03T05:50:31;101673.44;;;16.31;
46015;BME280;36844;51.898;-0.874;2023-03-03T05:52:57;101674.56;;;16.30;
46015;BME280;36844;51.898;-0.874;2023-03-03T05:55:22;101682.63;;;16.30;
46015;BME280;36844;51.898;-0.874;2023-03-03T05:57:47;101675.72;;;16.29;
46015;BME280;36844;51.898;-0.874;2023-03-03T06:00:13;101677.63;;;16.28;
46015;BME280;36844;51.898;-0.874;2023-03-03T06:02:39;101682.22;;;16.28;
46015;BME280;36844;51.898;-0.874;2023-03-03T06:05:05;101680.66;;;16.27;
46015;BME280;36844;51.898;-0.874;2023-03-03T06:07:30;101679.88;;;16.26;
46015;BME280;36844;51.898;-0.874;2023-03-03T06:09:55;101681.00;;;16.25;
46015;BME280;36844;51.898;-0.874;2023-03-03T06:12:20;101681.00;;;16.25;
46015;BME280;36844;51.898;-0.874;2023-03-03T06:14:46;101674.84;;;16.25;
46015;BME280;36844;51.898;-0.874;2023-03-03T06:17:11;101680.59;;;16.23;
46015;BME280;36844;51.898;-0.874;2023-03-03T06:19:37;101682.47;;;16.23;
46015;BME280;36844;51.898;-0.874;2023-03-03T06:22:02;101685.53;;;16.21;
46015;BME280;36844;51.898;-0.874;2023-03-03T06:24:27;101685.53;;;16.21;
46015;BME280;36844;51.898;-0.874;2023-03-03T06:26:54;101684.78;;;16.21;
46015;BME280;36844;51.898;-0.874;2023-03-03T06:29:20;101693.94;;;16.20;
46015;BME280;36844;51.898;-0.874;2023-03-03T06:31:45;101692.38;;;16.19;
46015;BME280;36844;51.898;-0.874;2023-03-03T06:34:10;101689.69;;;16.19;
46015;BME280;36844;51.898;-0.874;2023-03-03T06:36:35;101690.81;;;16.18;
46015;BME280;36844;51.898;-0.874;2023-03-03T06:39:00;101691.97;;;16.17;
46015;BME280;36844;51.898;-0.874;2023-03-03T06:41:26;101697.34;;;16.17;
46015;BME280;36844;51.898;-0.874;2023-03-03T06:43:51;101690.41;;;16.16;
46015;BME280;36844;51.898;-0.874;2023-03-03T06:46:16;101696.88;;;16.15;
46015;BME280;36844;51.898;-0.874;2023-03-03T06:48:42;101692.31;;;16.15;
46015;BME280;36844;51.898;-0.874;2023-03-03T06:51:28;101697.69;;;16.15;
46015;BME280;36844;51.898;-0.874;2023-03-03T06:53:55;101701.16;;;16.16;
46015;BME280;36844;51.898;-0.874;2023-03-03T06:56:23;101700.03;;;16.17;
46015;BME280;36844;51.898;-0.874;2023-03-03T06:58:48;101706.19;;;16.17;
46015;BME280;36844;51.898;-0.874;2023-03-03T07:01:16;101703.13;;;16.19;
46015;BME280;36844;51.898;-0.874;2023-03-03T07:03:41;101705.50;;;16.20;
46015;BME280;36844;51.898;-0.874;2023-03-03T07:06:28;101701.66;;;16.21;
46015;BME280;36844;51.898;-0.874;2023-03-03T07:08:54;101702.88;;;16.24;
46015;BME280;36844;51.898;-0.874;2023-03-03T07:11:21;101713.28;;;16.25;
46015;BME280;36844;51.898;-0.874;2023-03-03T07:13:51;101706.44;;;16.28;
46015;BME280;36844;51.898;-0.874;2023-03-03T07:16:17;101714.09;;;16.29;
46015;BME280;36844;51.898;-0.874;2023-03-03T07:21:22;101716.22;;;16.36;
46015;BME280;36844;51.898;-0.874;2023-03-03T07:23:51;101716.59;;;16.38;
46015;BME280;36844;51.898;-0.874;2023-03-03T07:26:18;101723.63;;;16.42;
46015;BME280;36844;51.898;-0.874;2023-03-03T07:28:47;101727.19;;;16.46;
46015;BME280;36844;51.898;-0.874;2023-03-03T07:33:49;101734.69;;;16.56;
46015;BME280;36844;51.898;-0.874;2023-03-03T07:36:28;101733.63;;;16.61;
46015;BME280;36844;51.898;-0.874;2023-03-03T07:38:55;101742.22;;;16.66;
46015;BME280;36844;51.898;-0.874;2023-03-03T07:41:21;101748.84;;;16.72;
46015;BME280;36844;51.898;-0.874;2023-03-03T07:44:05;101739.72;;;16.77;
46015;BME280;36844;51.898;-0.874;2023-03-03T07:48:59;101748.47;;;16.90;
46015;BME280;36844;51.898;-0.874;2023-03-03T07:53:51;101748.66;;;17.00;
46015;BME280;36844;51.898;-0.874;2023-03-03T07:56:26;101751.84;;;17.06;
46015;BME280;36844;51.898;-0.874;2023-03-03T07:58:52;101758.50;;;17.12;
46015;BME280;36844;51.898;-0.874;2023-03-03T08:01:39;101753.97;;;17.16;
46015;BME280;36844;51.898;-0.874;2023-03-03T08:06:46;101769.19;;;17.27;
46015;BME280;36844;51.898;-0.874;2023-03-03T08:11:58;101762.34;;;17.33;
46015;BME280;36844;51.898;-0.874;2023-03-03T08:14:29;101767.44;;;17.38;
46015;BME280;36844;51.898;-0.874;2023-03-03T08:16:55;101768.63;;;17.41;
46015;BME280;36844;51.898;-0.874;2023-03-03T08:19:21;101777.97;;;17.43;
46015;BME280;36844;51.898;-0.874;2023-03-03T08:21:46;101775.31;;;17.47;
46015;BME280;36844;51.898;-0.874;2023-03-03T08:24:11;101776.50;;;17.49;
46015;BME280;36844;51.898;-0.874;2023-03-03T08:26:37;101773.47;;;17.51;
46015;BME280;36844;51.898;-0.874;2023-03-03T08:29:02;101777.34;;;17.53;
46015;BME280;36844;51.898;-0.874;2023-03-03T08:31:27;101776.97;;;17.55;
46015;BME280;36844;51.898;-0.874;2023-03-03T08:33:53;101773.91;;;17.56;
46015;BME280;36844;51.898;-0.874;2023-03-03T08:36:18;101780.09;;;17.57;
46015;BME280;36844;51.898;-0.874;2023-03-03T08:38:44;101780.50;;;17.59;
46015;BME280;36844;51.898;-0.874;2023-03-03T08:41:09;101784.75;;;17.60;
46015;BME280;36844;51.898;-0.874;2023-03-03T08:43:34;101782.84;;;17.60;
46015;BME280;36844;51.898;-0.874;2023-03-03T08:46:00;101783.63;;;17.61;
46015;BME280;36844;51.898;-0.874;2023-03-03T08:48:26;101793.28;;;17.62;
46015;BME280;36844;51.898;-0.874;2023-03-03T08:50:52;101787.13;;;17.61;
46015;BME280;36844;51.898;-0.874;2023-03-03T08:53:17;101789.81;;;17.61;
46015;BME280;36844;51.898;-0.874;2023-03-03T08:55:43;101789.03;;;17.61;
46015;BME280;36844;51.898;-0.874;2023-03-03T08:58:08;101789.03;;;17.61;
46015;BME280;36844;51.898;-0.874;2023-03-03T09:00:34;101790.94;;;17.60;
46015;BME280;36844;51.898;-0.874;2023-03-03T09:02:59;101794.75;;;17.59;
46015;BME280;36844;51.898;-0.874;2023-03-03T09:05:25;101797.44;;;17.59;
46015;BME280;36844;51.898;-0.874;2023-03-03T09:07:51;101794.75;;;17.59;
46015;BME280;36844;51.898;-0.874;2023-03-03T09:10:17;101795.13;;;17.58;
46015;BME280;36844;51.898;-0.874;2023-03-03T09:12:44;101801.31;;;17.58;
46015;BME280;36844;51.898;-0.874;2023-03-03T09:15:17;101790.09;;;17.56;
46015;BME280;36844;51.898;-0.874;2023-03-03T09:17:43;101793.91;;;17.55;
46015;BME280;36844;51.898;-0.874;2023-03-03T09:22:52;101800.81;;;17.53;
46015;BME280;36844;51.898;-0.874;2023-03-03T09:25:36;101796.94;;;17.50;
46015;BME280;36844;51.898;-0.874;2023-03-03T09:28:02;101798.03;;;17.49;
46015;BME280;36844;51.898;-0.874;2023-03-03T09:30:35;101803.03;;;17.47;
46015;BME280;36844;51.898;-0.874;2023-03-03T09:33:00;101803.03;;;17.47;
46015;BME280;36844;51.898;-0.874;2023-03-03T09:35:36;101800.22;;;17.44;
46015;BME280;36844;51.898;-0.874;2023-03-03T09:38:09;101806.00;;;17.42;
46015;BME280;36844;51.898;-0.874;2023-03-03T09:49:07;101812.06;;;17.36;
46015;BME280;36844;51.898;-0.874;2023-03-03T09:57:17;101806.16;;;17.30;
46015;BME280;36844;51.898;-0.874;2023-03-03T09:59:27;101808.44;;;17.28;
46015;BME280;36844;51.898;-0.874;2023-03-03T10:22:19;101830.13;;;17.16;
46015;BME280;36844;51.898;-0.874;2023-03-03T10:43:24;101835.34;;;17.09;
46015;BME280;36844;51.898;-0.874;2023-03-03T10:54:18;101838.22;;;17.16;
46015;BME280;36844;51.898;-0.874;2023-03-03T10:59:22;101835.97;;;17.22;
46015;BME280;36844;51.898;-0.874;2023-03-03T11:01:58;101842.22;;;17.26;
46015;BME280;36844;51.898;-0.874;2023-03-03T11:09:32;101844.78;;;17.38;
46015;BME280;36844;51.898;-0.874;2023-03-03T11:14:44;101852.66;;;17.46;
46015;BME280;36844;51.898;-0.874;2023-03-03T11:22:45;101844.41;;;17.58;
46015;BME280;36844;51.898;-0.874;2023-03-03T11:30:17;101853.47;;;17.69;
46015;BME280;36844;51.898;-0.874;2023-03-03T11:40:19;101851.75;;;17.81;
46015;BME280;36844;51.898;-0.874;2023-03-03T11:43:02;101855.63;;;17.83;
46015;BME280;36844;51.898;-0.874;2023-03-03T11:45:46;101857.94;;;17.85;
46015;BME280;36844;51.898;-0.874;2023-03-03T11:56:06;101859.16;;;17.87;
46015;BME280;36844;51.898;-0.874;2023-03-03T11:58:38;101856.47;;;17.87;
46015;BME280;36844;51.898;-0.874;2023-03-03T12:01:22;101849.91;;;17.88;
46015;BME280;36844;51.898;-0.874;2023-03-03T12:04:08;101843.78;;;17.88;
46015;BME280;36844;51.898;-0.874;2023-03-03T12:19:31;101846.81;;;17.86;
46015;BME280;36844;51.898;-0.874;2023-03-03T12:24:33;101843.34;;;17.86;
46015;BME280;36844;51.898;-0.874;2023-03-03T12:34:53;101836.38;;;17.85;
46015;BME280;36844;51.898;-0.874;2023-03-03T12:37:39;101836.38;;;17.85;
46015;BME280;36844;51.898;-0.874;2023-03-03T12:40:09;101837.19;;;17.85;
46015;BME280;36844;51.898;-0.874;2023-03-03T12:42:45;101837.97;;;17.86;
46015;BME280;36844;51.898;-0.874;2023-03-03T12:45:17;101835.25;;;17.86;
46015;BME280;36844;51.898;-0.874;2023-03-03T12:47:49;101838.72;;;17.86;
46015;BME280;36844;51.898;-0.874;2023-03-03T12:55:36;101829.50;;;17.87;
46015;BME280;36844;51.898;-0.874;2023-03-03T13:13:33;101821.09;;;17.92;
46015;BME280;36844;51.898;-0.874;2023-03-03T13:16:09;101814.19;;;17.91;
46015;BME280;36844;51.898;-0.874;2023-03-03T13:21:32;101824.59;;;17.93;
46015;BME280;36844;51.898;-0.874;2023-03-03T13:24:05;101825.75;;;17.92;
46015;BME280;36844;51.898;-0.874;2023-03-03T13:29:12;101827.66;;;17.91;
46015;BME280;36844;51.898;-0.874;2023-03-03T13:31:42;101826.88;;;17.91;
46015;BME280;36844;51.898;-0.874;2023-03-03T13:34:12;101822.63;;;17.90;
46015;BME280;36844;51.898;-0.874;2023-03-03T13:36:43;101825.31;;;17.90;
46015;BME280;36844;51.898;-0.874;2023-03-03T13:39:36;101815.66;;;17.89;
46015;BME280;36844;51.898;-0.874;2023-03-03T13:52:05;101805.97;;;17.84;
46015;BME280;36844;51.898;-0.874;2023-03-03T13:54:40;101807.88;;;17.84;
46015;BME280;36844;51.898;-0.874;2023-03-03T13:57:29;101796.31;;;17.83;
46015;BME280;36844;51.898;-0.874;2023-03-03T14:07:52;101804.72;;;17.78;
46015;BME280;36844;51.898;-0.874;2023-03-03T14:10:40;101800.44;;;17.77;
46015;BME280;36844;51.898;-0.874;2023-03-03T14:13:08;101797.69;;;17.73;
46015;BME280;36844;51.898;-0.874;2023-03-03T14:21:03;101794.53;;;17.68;
46015;BME280;36844;51.898;-0.874;2023-03-03T14:23:33;101802.97;;;17.66;
46015;BME280;36844;51.898;-0.874;2023-03-03T14:26:10;101796.03;;;17.65;
46015;BME280;36844;51.898;-0.874;2023-03-03T14:28:40;101794.81;;;17.63;
46015;BME280;36844;51.898;-0.874;2023-03-03T14:31:21;101790.94;;;17.60;
46015;BME280;36844;51.898;-0.874;2023-03-03T14:36:26;101788.97;;;17.57;
46015;BME280;36844;51.898;-0.874;2023-03-03T14:38:51;101788.50;;;17.55;
46015;BME280;36844;51.898;-0.874;2023-03-03T14:41:18;101791.59;;;17.54;
46015;BME280;36844;51.898;-0.874;2023-03-03T14:48:57;101782.22;;;17.48;
46015;BME280;36844;51.898;-0.874;2023-03-03T14:51:30;101779.91;;;17.46;
46015;BME280;36844;51.898;-0.874;2023-03-03T14:53:57;101779.47;;;17.44;
46015;BME280;36844;51.898;-0.874;2023-03-03T14:56:23;101778.28;;;17.42;
46015;BME280;36844;51.898;-0.874;2023-03-03T14:58:53;101780.19;;;17.41;
46015;BME280;36844;51.898;-0.874;2023-03-03T15:01:32;101782.81;;;17.38;
46015;BME280;36844;51.898;-0.874;2023-03-03T15:04:02;101777.78;;;17.36;
46015;BME280;36844;51.898;-0.874;2023-03-03T15:09:33;101782.34;;;17.32;
46015;BME280;36844;51.898;-0.874;2023-03-03T15:12:01;101773.06;;;17.30;
46015;BME280;36844;51.898;-0.874;2023-03-03T15:14:31;101770.75;;;17.28;
46015;BME280;36844;51.898;-0.874;2023-03-03T15:16:57;101767.59;;;17.26;
46015;BME280;36844;51.898;-0.874;2023-03-03T15:22:10;101758.69;;;17.22;
46015;BME280;36844;51.898;-0.874;2023-03-03T15:24:43;101754.44;;;17.21;
46015;BME280;36844;51.898;-0.874;2023-03-03T15:27:17;101755.94;;;17.19;
46015;BME280;36844;51.898;-0.874;2023-03-03T15:42:51;101744.19;;;17.08;
46015;BME280;36844;51.898;-0.874;2023-03-03T15:45:26;101742.59;;;17.07;
46015;BME280;36844;51.898;-0.874;2023-03-03T15:50:40;101739.06;;;17.03;
46015;BME280;36844;51.898;-0.874;2023-03-03T16:03:52;101729.31;;;16.95;
46015;BME280;36844;51.898;-0.874;2023-03-03T16:06:25;101730.47;;;16.94;
46015;BME280;36844;51.898;-0.874;2023-03-03T16:09:00;101730.81;;;16.92;
46015;BME280;36844;51.898;-0.874;2023-03-03T16:11:33;101733.84;;;16.91;
46015;BME280;36844;51.898;-0.874;2023-03-03T16:14:11;101726.94;;;16.90;
46015;BME280;36844;51.898;-0.874;2023-03-03T16:16:56;101724.56;;;16.88;
46015;BME280;36844;51.898;-0.874;2023-03-03T16:21:54;101728.78;;;16.86;
46015;BME280;36844;51.898;-0.874;2023-03-03T16:27:01;101735.28;;;16.85;
46015;BME280;36844;51.898;-0.874;2023-03-03T16:37:17;101741.44;;;16.85;
46015;BME280;36844;51.898;-0.874;2023-03-03T16:44:44;101742.28;;;16.89;
46015;BME280;36844;51.898;-0.874;2023-03-03T16:49:38;101748.91;;;16.95;
46015;BME280;36844;51.898;-0.874;2023-03-03T16:52:13;101744.75;;;16.98;
46015;BME280;36844;51.898;-0.874;2023-03-03T16:59:47;101755.00;;;17.11;
46015;BME280;36844;51.898;-0.874;2023-03-03T17:04:54;101759.47;;;17.23;
46015;BME280;36844;51.898;-0.874;2023-03-03T17:09:57;101760.44;;;17.34;
46015;BME280;36844;51.898;-0.874;2023-03-03T17:12:32;101753.97;;;17.38;
46015;BME280;36844;51.898;-0.874;2023-03-03T17:30:40;101783.16;;;17.78;
46015;BME280;36844;51.898;-0.874;2023-03-03T17:40:41;101778.34;;;17.91;
46015;BME280;36844;51.898;-0.874;2023-03-03T17:45:37;101785.00;;;17.97;
46015;BME280;36844;51.898;-0.874;2023-03-03T17:56:15;101773.56;;;18.07;
46015;BME280;36844;51.898;-0.874;2023-03-03T18:22:06;101802.69;;;18.46;
46015;BME280;36844;51.898;-0.874;2023-03-03T18:35:23;101823.75;;;18.67;
46015;BME280;36844;51.898;-0.874;2023-03-03T18:37:49;101826.16;;;18.72;
46015;BME280;36844;51.898;-0.874;2023-03-03T18:40:18;101823.91;;;18.77;
46015;BME280;36844;51.898;-0.874;2023-03-03T18:42:45;101832.84;;;18.82;
46015;BME280;36844;51.898;-0.874;2023-03-03T18:55:39;101841.94;;;19.00;
46015;BME280;36844;51.898;-0.874;2023-03-03T19:00:50;101848.94;;;19.04;
46015;BME280;36844;51.898;-0.874;2023-03-03T19:03:26;101856.69;;;19.09;
46015;BME280;36844;51.898;-0.874;2023-03-03T19:05:52;101852.84;;;19.10;
46015;BME280;36844;51.898;-0.874;2023-03-03T19:08:29;101850.59;;;19.12;
46015;BME280;36844;51.898;-0.874;2023-03-03T19:10:58;101853.69;;;19.14;
46015;BME280;36844;51.898;-0.874;2023-03-03T19:16:02;101848.69;;;19.16;
46015;BME280;36844;51.898;-0.874;2023-03-03T19:18:28;101848.31;;;19.18;
46015;BME280;36844;51.898;-0.874;2023-03-03T19:20:59;101847.97;;;19.19;
46015;BME280;36844;51.898;-0.874;2023-03-03T19:28:41;101847.56;;;19.21;
46015;BME280;36844;51.898;-0.874;2023-03-03T19:33:54;101858.03;;;19.22;
46015;BME280;36844;51.898;-0.874;2023-03-03T19:41:48;101854.56;;;19.25;